Cape Providence — 3EWQ — position and weather

sailwx.info

Track history (hours):
 
Tides and Currents Weather Stations Pressure Air Temp Water Temp Dewpoint Dewpoint Depression Visibility Wind Speed Wind Dir Waves Ship Positions

Cape Providence

Last reported at 2018-Feb-21 14:37 UTC. Time now 2018-Feb-23 22:34 UTC.
Position N 22°40' E 119°36'.

Length 292 m; draft 10.7 m.

Type: Cargo ship. MMSI: 372773000.

Date/timePositionNaut miles runAvg speedWind from/ knotsBaromVisibWave heightAir tempDewpointWater temp
2018-Feb-21 14:37N 22°40' E 119°36'412.1
2018-Feb-21 14:15N 22°44' E 119°38'2411.9
2018-Feb-21 12:12N 23°06' E 119°49'312.6
2018-Feb-21 11:59N 23°09' E 119°49'1512.8
2018-Feb-21 10:51N 23°23' E 119°49'513.3
2018-Feb-21 10:30N 23°28' E 119°49'713.5
2018-Feb-21 10:00N 23°34' E 119°49'713.2
2018-Feb-21 09:30N 23°41' E 119°50'713.2
2018-Feb-21 09:00N 23°47' E 119°52'10413.1
2018-Feb-21 01:06N 25°19' E 120°44'213.1
2018-Feb-21 00:59N 25°20' E 120°46'612.9
2018-Feb-21 00:30N 25°25' E 120°50'712.4
2018-Feb-20 23:59N 25°30' E 120°55'612.0
2018-Feb-20 23:30N 25°34' E 120°59'340 9.9
2018-Feb-19 13:07N 31°05' E 122°26'3 6.9
2018-Feb-19 12:40N 31°06' E 122°23'312.2
2018-Feb-19 12:27N 31°06' E 122°20'714.5
2018-Feb-19 11:57N 31°10' E 122°12'715.0
2018-Feb-19 11:30N 31°14' E 122°06'815.2
2018-Feb-19 10:58N 31°15' E 121°57'814.4
2018-Feb-19 10:24N 31°18' E 121°47'4 0.1
2018-Feb-18 04:36N 31°19' E 121°43'110.9
2018-Feb-18 04:30N 31°19' E 121°45'710.0
2018-Feb-18 03:49N 31°16' E 121°52'411.1
2018-Feb-18 03:29N 31°15' E 121°56'611.9
2018-Feb-18 03:00N 31°14' E 122°03'611.3
2018-Feb-18 02:30N 31°12' E 122°09'611.4
2018-Feb-18 02:00N 31°09' E 122°14'612.7
2018-Feb-18 01:30N 31°06' E 122°21'10 8.6
2018-Feb-18 00:23N 31°06' E 122°32'2 4.7
2018-Feb-18 00:00N 31°07' E 122°34'  
2018-Feb-15 13:31N 31°09' E 122°42'0 0.0
2018-Feb-15 13:16N 31°09' E 122°42'0 0.2
2018-Feb-15 11:25N 31°09' E 122°42'0 0.1
2018-Feb-15 08:49N 31°09' E 122°43'0 0.0
2018-Feb-15 07:43N 31°09' E 122°43'0 0.1
2018-Feb-15 07:19N 31°09' E 122°42'0 0.0
2018-Feb-14 23:01N 31°09' E 122°42'0 0.0
2018-Feb-14 22:55N 31°09' E 122°42'0 0.1
2018-Feb-14 22:22N 31°09' E 122°42'0 0.1
2018-Feb-14 21:58N 31°09' E 122°42'0 0.1
2018-Feb-14 21:28N 31°09' E 122°43'0 0.3
2018-Feb-14 20:55N 31°09' E 122°43'0 0.0
2018-Feb-14 20:28N 31°09' E 122°43'0 0.0
2018-Feb-14 19:58N 31°09' E 122°43'0 0.1
2018-Feb-14 19:25N 31°09' E 122°43'0 0.0
2018-Feb-14 18:43N 31°09' E 122°43'0 0.2
2018-Feb-14 18:25N 31°09' E 122°43'0 0.1
2018-Feb-14 17:55N 31°09' E 122°43'0 0.1
2018-Feb-14 17:28N 31°09' E 122°43'0 0.1
2018-Feb-14 16:46N 31°09' E 122°43'0 0.2
2018-Feb-14 16:28N 31°09' E 122°43'0 0.3
2018-Feb-14 15:55N 31°10' E 122°43'0 0.1
2018-Feb-14 15:28N 31°10' E 122°42'0 0.1
2018-Feb-14 14:58N 31°10' E 122°42'0 0.1
2018-Feb-14 10:25N 31°09' E 122°42'0 0.1
2018-Feb-14 09:31N 31°09' E 122°42'0 0.2
2018-Feb-14 09:04N 31°09' E 122°43'0 0.0
2018-Feb-14 08:58N 31°09' E 122°43'0 0.1
2018-Feb-14 08:28N 31°09' E 122°43'0 0.0
2018-Feb-14 07:37N 31°09' E 122°43'0 0.1
2018-Feb-14 07:25N 31°09' E 122°43'0 0.2
2018-Feb-14 06:52N 31°09' E 122°43'0 0.2
2018-Feb-14 06:28N 31°09' E 122°43'0 0.2
2018-Feb-14 05:55N 31°09' E 122°43'0 0.1
2018-Feb-14 04:22N 31°09' E 122°42'0 0.1
2018-Feb-14 02:37N 31°09' E 122°42'0 0.0
2018-Feb-14 02:28N 31°09' E 122°42'0 0.0
2018-Feb-14 01:58N 31°09' E 122°42'0 0.1
2018-Feb-14 01:28N 31°09' E 122°42'0 0.0
2018-Feb-13 09:19N 31°09' E 122°43'0 0.0
2018-Feb-13 08:55N 31°09' E 122°43'0 0.0
2018-Feb-13 00:25N 31°09' E 122°42'0 0.1
2018-Feb-12 23:40N 31°09' E 122°42'0 0.2
2018-Feb-12 23:25N 31°09' E 122°42'0 0.1
2018-Feb-12 21:43N 31°09' E 122°43'  
Track history (hours):
 
Tides and Currents Weather Stations Pressure Air Temp Water Temp Dewpoint Dewpoint Depression Visibility Wind Speed Wind Dir Waves Ship Positions

Cape Providence

Last reported at 2018-Feb-21 14:37 UTC. Time now 2018-Feb-23 22:34 UTC.
Position N 22°40' E 119°36'.

Length 292 m; draft 10.7 m.

Type: Cargo ship. MMSI: 372773000.

Date/timePositionNaut miles runAvg speedWind from/ knotsBaromVisibWave heightAir tempDewpointWater temp
2018-Feb-21 14:37N 22°40' E 119°36'412.1
2018-Feb-21 14:15N 22°44' E 119°38'2411.9
2018-Feb-21 12:12N 23°06' E 119°49'312.6
2018-Feb-21 11:59N 23°09' E 119°49'1512.8
2018-Feb-21 10:51N 23°23' E 119°49'513.3
2018-Feb-21 10:30N 23°28' E 119°49'713.5
2018-Feb-21 10:00N 23°34' E 119°49'713.2
2018-Feb-21 09:30N 23°41' E 119°50'713.2
2018-Feb-21 09:00N 23°47' E 119°52'10413.1
2018-Feb-21 01:06N 25°19' E 120°44'213.1
2018-Feb-21 00:59N 25°20' E 120°46'612.9
2018-Feb-21 00:30N 25°25' E 120°50'712.4
2018-Feb-20 23:59N 25°30' E 120°55'612.0
2018-Feb-20 23:30N 25°34' E 120°59'340 9.9
2018-Feb-19 13:07N 31°05' E 122°26'3 6.9
2018-Feb-19 12:40N 31°06' E 122°23'312.2
2018-Feb-19 12:27N 31°06' E 122°20'714.5
2018-Feb-19 11:57N 31°10' E 122°12'715.0
2018-Feb-19 11:30N 31°14' E 122°06'815.2
2018-Feb-19 10:58N 31°15' E 121°57'814.4
2018-Feb-19 10:24N 31°18' E 121°47'4 0.1
2018-Feb-18 04:36N 31°19' E 121°43'110.9
2018-Feb-18 04:30N 31°19' E 121°45'710.0
2018-Feb-18 03:49N 31°16' E 121°52'411.1
2018-Feb-18 03:29N 31°15' E 121°56'611.9
2018-Feb-18 03:00N 31°14' E 122°03'611.3
2018-Feb-18 02:30N 31°12' E 122°09'611.4
2018-Feb-18 02:00N 31°09' E 122°14'612.7
2018-Feb-18 01:30N 31°06' E 122°21'10 8.6
2018-Feb-18 00:23N 31°06' E 122°32'2 4.7
2018-Feb-18 00:00N 31°07' E 122°34'  
2018-Feb-15 13:31N 31°09' E 122°42'0 0.0
2018-Feb-15 13:16N 31°09' E 122°42'0 0.2
2018-Feb-15 11:25N 31°09' E 122°42'0 0.1
2018-Feb-15 08:49N 31°09' E 122°43'0 0.0
2018-Feb-15 07:43N 31°09' E 122°43'0 0.1
2018-Feb-15 07:19N 31°09' E 122°42'0 0.0
2018-Feb-14 23:01N 31°09' E 122°42'0 0.0
2018-Feb-14 22:55N 31°09' E 122°42'0 0.1
2018-Feb-14 22:22N 31°09' E 122°42'0 0.1
2018-Feb-14 21:58N 31°09' E 122°42'0 0.1
2018-Feb-14 21:28N 31°09' E 122°43'0 0.3
2018-Feb-14 20:55N 31°09' E 122°43'0 0.0
2018-Feb-14 20:28N 31°09' E 122°43'0 0.0
2018-Feb-14 19:58N 31°09' E 122°43'0 0.1
2018-Feb-14 19:25N 31°09' E 122°43'0 0.0
2018-Feb-14 18:43N 31°09' E 122°43'0 0.2
2018-Feb-14 18:25N 31°09' E 122°43'0 0.1
2018-Feb-14 17:55N 31°09' E 122°43'0 0.1
2018-Feb-14 17:28N 31°09' E 122°43'0 0.1
2018-Feb-14 16:46N 31°09' E 122°43'0 0.2
2018-Feb-14 16:28N 31°09' E 122°43'0 0.3
2018-Feb-14 15:55N 31°10' E 122°43'0 0.1
2018-Feb-14 15:28N 31°10' E 122°42'0 0.1
2018-Feb-14 14:58N 31°10' E 122°42'0 0.1
2018-Feb-14 10:25N 31°09' E 122°42'0 0.1
2018-Feb-14 09:31N 31°09' E 122°42'0 0.2
2018-Feb-14 09:04N 31°09' E 122°43'0 0.0
2018-Feb-14 08:58N 31°09' E 122°43'0 0.1
2018-Feb-14 08:28N 31°09' E 122°43'0 0.0
2018-Feb-14 07:37N 31°09' E 122°43'0 0.1
2018-Feb-14 07:25N 31°09' E 122°43'0 0.2
2018-Feb-14 06:52N 31°09' E 122°43'0 0.2
2018-Feb-14 06:28N 31°09' E 122°43'0 0.2
2018-Feb-14 05:55N 31°09' E 122°43'0 0.1
2018-Feb-14 04:22N 31°09' E 122°42'0 0.1
2018-Feb-14 02:37N 31°09' E 122°42'0 0.0
2018-Feb-14 02:28N 31°09' E 122°42'0 0.0
2018-Feb-14 01:58N 31°09' E 122°42'0 0.1
2018-Feb-14 01:28N 31°09' E 122°42'0 0.0
2018-Feb-13 09:19N 31°09' E 122°43'0 0.0
2018-Feb-13 08:55N 31°09' E 122°43'0 0.0
2018-Feb-13 00:25N 31°09' E 122°42'0 0.1
2018-Feb-12 23:40N 31°09' E 122°42'0 0.2
2018-Feb-12 23:25N 31°09' E 122°42'0 0.1
2018-Feb-12 21:43N 31°09' E 122°43'  

Dump ship's entire track history